createdAt,value
2019-05-13T00:01:50.765Z,100138.20
2019-05-13T00:04:25.357Z,100127.22
2019-05-13T00:07:04.679Z,100141.11
2019-05-13T00:09:37.770Z,100135.28
2019-05-13T00:12:10.353Z,100134.34
2019-05-13T00:14:43.460Z,100144.55
2019-05-13T00:17:17.069Z,100138.82
2019-05-13T00:19:49.625Z,100135.25
2019-05-13T00:22:23.446Z,100131.84
2019-05-13T00:24:54.432Z,100132.66
2019-05-13T00:27:26.396Z,100124.30
2019-05-13T00:29:58.461Z,100126.62
2019-05-13T00:32:30.344Z,100117.02
2019-05-13T00:35:03.959Z,100126.99
2019-05-13T00:37:45.442Z,100126.52
2019-05-13T00:40:17.480Z,100136.13
2019-05-13T00:42:49.036Z,100149.17
2019-05-13T00:45:21.064Z,100148.87
2019-05-13T00:47:54.431Z,100146.14
2019-05-13T00:50:26.277Z,100152.30
2019-05-13T00:52:57.882Z,100142.30
2019-05-13T00:55:31.054Z,100144.28
2019-05-13T00:58:04.229Z,100149.14
2019-05-13T01:00:35.803Z,100151.42
2019-05-13T01:03:08.074Z,100147.36
2019-05-13T01:05:39.894Z,100156.96
2019-05-13T01:08:14.539Z,100157.06
2019-05-13T01:10:48.956Z,100153.83
2019-05-13T01:13:20.578Z,100159.56
2019-05-13T01:15:54.193Z,100154.02
2019-05-13T01:18:26.725Z,100153.66
2019-05-13T01:20:58.425Z,100020.80
2019-05-13T01:23:30.519Z,100170.37
2019-05-13T01:26:03.901Z,100160.19
2019-05-13T01:28:36.429Z,100152.37
2019-05-13T01:31:10.234Z,100151.16
2019-05-13T01:33:44.322Z,100161.73
2019-05-13T01:36:17.117Z,100158.77
2019-05-13T01:38:48.687Z,100157.04
2019-05-13T01:41:20.188Z,100142.31
2019-05-13T01:43:51.592Z,100151.19
2019-05-13T01:46:25.946Z,100158.92
2019-05-13T01:48:57.682Z,100159.98
2019-05-13T01:51:30.007Z,100154.29
2019-05-13T01:54:03.970Z,100158.27
2019-05-13T01:56:35.831Z,100162.55
2019-05-13T01:59:08.614Z,100164.73
2019-05-13T02:01:40.125Z,100162.55
2019-05-13T02:04:14.035Z,100163.55
2019-05-13T02:06:44.911Z,100157.42
2019-05-13T02:09:18.684Z,100158.35
2019-05-13T02:11:53.821Z,100173.63
2019-05-13T02:14:25.858Z,100150.81
2019-05-13T02:16:59.787Z,100149.41
2019-05-13T02:19:33.413Z,100164.42
2019-05-13T02:22:06.396Z,100169.68
2019-05-13T02:24:38.247Z,100162.45
2019-05-13T02:27:09.809Z,100166.42
2019-05-13T02:29:43.492Z,100168.12
2019-05-13T02:32:16.219Z,100167.39
2019-05-13T02:34:47.701Z,100159.51
2019-05-13T02:37:22.879Z,100173.66
2019-05-13T02:39:53.354Z,100169.18
2019-05-13T02:42:24.917Z,100163.92
2019-05-13T02:44:57.733Z,100173.72
2019-05-13T02:47:33.097Z,100167.30
2019-05-13T02:50:14.948Z,100166.42
2019-05-13T02:52:48.032Z,100155.54
2019-05-13T02:55:38.410Z,100167.34
2019-05-13T02:58:12.401Z,100163.77
2019-05-13T03:00:44.436Z,100178.72
2019-05-13T03:03:17.771Z,100176.16
2019-05-13T03:05:52.754Z,100175.78
2019-05-13T03:08:39.866Z,100175.05
2019-05-13T03:10:59.155Z,100169.74
2019-05-13T03:13:32.763Z,100187.95
2019-05-13T03:16:24.948Z,100179.50
2019-05-13T03:18:56.673Z,100187.36
2019-05-13T03:21:28.466Z,100185.14
2019-05-13T03:24:03.044Z,100178.56
2019-05-13T03:26:33.870Z,100183.42
2019-05-13T03:29:05.468Z,100194.95
2019-05-13T03:31:37.447Z,100176.03
2019-05-13T03:34:08.680Z,100197.94
2019-05-13T03:36:45.726Z,100194.88
2019-05-13T03:39:16.562Z,100198.56
2019-05-13T03:41:52.888Z,100208.01
2019-05-13T03:44:26.624Z,100204.59
2019-05-13T03:46:59.122Z,100205.63
2019-05-13T03:49:34.018Z,100212.92
2019-05-13T03:52:05.784Z,100212.89
2019-05-13T03:54:37.628Z,100212.60
2019-05-13T03:57:12.595Z,100217.30
2019-05-13T03:59:44.277Z,100211.73
2019-05-13T04:02:16.199Z,100208.62
2019-05-13T04:04:53.421Z,100223.98
2019-05-13T04:07:27.803Z,100222.64
2019-05-13T04:10:03.300Z,100221.89
2019-05-13T04:12:43.788Z,100234.13
2019-05-13T04:15:17.787Z,100236.02
2019-05-13T04:17:53.155Z,100233.01
2019-05-13T04:20:26.059Z,100235.55
2019-05-13T04:23:02.694Z,100239.81
2019-05-13T04:25:33.089Z,100071.28
2019-05-13T04:28:05.346Z,100231.26
2019-05-13T04:30:36.954Z,100229.48
2019-05-13T04:33:08.705Z,100239.58
2019-05-13T04:35:42.548Z,100233.51
2019-05-13T04:38:13.908Z,100238.77
2019-05-13T04:40:45.859Z,100243.44
2019-05-13T04:43:17.486Z,100240.89
2019-05-13T04:45:52.239Z,100241.73
2019-05-13T04:48:23.111Z,100242.15
2019-05-13T04:50:54.927Z,100239.98
2019-05-13T04:53:26.292Z,100234.88
2019-05-13T04:56:03.622Z,100238.79
2019-05-13T04:58:37.591Z,100242.18
2019-05-13T05:01:48.801Z,100233.48
2019-05-13T05:04:31.810Z,100245.56
2019-05-13T05:07:37.039Z,100238.06
2019-05-13T05:10:49.806Z,100248.62
2019-05-13T05:13:46.403Z,100235.41
2019-05-13T05:16:48.333Z,100238.30
2019-05-13T05:19:46.687Z,100244.74
2019-05-13T05:22:28.833Z,100234.67
2019-05-13T05:25:42.327Z,100245.24
2019-05-13T05:28:33.787Z,100253.63
2019-05-13T05:31:25.661Z,100253.45
2019-05-13T05:34:32.186Z,100243.37
2019-05-13T05:37:28.446Z,100257.33
2019-05-13T05:40:01.959Z,100259.55
2019-05-13T05:42:42.980Z,100259.40
2019-05-13T05:45:18.851Z,100253.27
2019-05-13T05:47:52.347Z,100277.33
2019-05-13T05:50:23.660Z,100281.06
2019-05-13T05:52:57.279Z,100280.78
2019-05-13T05:55:31.778Z,100280.75
2019-05-13T05:58:04.514Z,100266.32
2019-05-13T06:00:41.528Z,100286.03
2019-05-13T06:03:14.009Z,100289.71
2019-05-13T06:05:45.422Z,100283.61
2019-05-13T06:08:18.359Z,100284.36
2019-05-13T06:10:53.549Z,100286.23
2019-05-13T06:13:23.400Z,100290.52
2019-05-13T06:15:54.810Z,100286.96
2019-05-13T06:18:26.185Z,100286.31
2019-05-13T06:20:57.520Z,100290.34
2019-05-13T06:23:33.559Z,100285.94
2019-05-13T06:26:06.689Z,100276.47
2019-05-13T06:28:38.549Z,100288.74
2019-05-13T06:31:12.632Z,100282.70
2019-05-13T06:33:43.449Z,100297.53
2019-05-13T06:36:15.951Z,100292.06
2019-05-13T06:38:51.163Z,100291.37
2019-05-13T06:41:22.089Z,100303.95
2019-05-13T06:43:55.670Z,100298.17
2019-05-13T06:46:28.052Z,100302.59
2019-05-13T06:48:59.395Z,100289.88
2019-05-13T06:51:31.497Z,100297.98
2019-05-13T06:54:03.485Z,100299.65
2019-05-13T06:56:35.183Z,100298.33
2019-05-13T06:59:11.896Z,100298.86
2019-05-13T07:01:45.609Z,100302.31
2019-05-13T07:04:21.934Z,100300.96
2019-05-13T07:07:08.746Z,100302.56
2019-05-13T07:09:32.000Z,100302.56
2019-05-13T07:12:03.555Z,100297.77
2019-05-13T07:14:35.843Z,100303.03
2019-05-13T07:17:07.404Z,100283.89
2019-05-13T07:19:41.408Z,100287.38
2019-05-13T07:22:15.190Z,100295.67
2019-05-13T07:24:47.176Z,100289.88
2019-05-13T07:27:18.697Z,100298.45
2019-05-13T07:29:51.505Z,100299.20
2019-05-13T07:32:23.691Z,100303.28
2019-05-13T07:34:57.235Z,100296.70
2019-05-13T07:37:31.774Z,100284.93
2019-05-13T07:40:13.639Z,100287.84
2019-05-13T07:42:46.645Z,100303.39
2019-05-13T07:45:18.396Z,100298.30
2019-05-13T07:47:52.107Z,100308.53
2019-05-13T07:50:26.753Z,100306.08
2019-05-13T07:52:58.545Z,100312.44
2019-05-13T07:55:31.706Z,100317.23
2019-05-13T07:58:03.214Z,100317.55
2019-05-13T08:00:35.146Z,100312.38
2019-05-13T08:03:06.962Z,100317.45
2019-05-13T08:05:38.608Z,100316.30
2019-05-13T08:08:11.684Z,100310.49
2019-05-13T08:10:46.271Z,100329.66
2019-05-13T08:13:17.996Z,100320.17
2019-05-13T08:15:49.397Z,100320.45
2019-05-13T08:18:22.171Z,100325.34
2019-05-13T08:20:55.399Z,100313.94
2019-05-13T08:23:26.862Z,100331.93
2019-05-13T08:25:58.848Z,100336.59
2019-05-13T08:28:32.871Z,100328.63
2019-05-13T08:31:04.307Z,100337.53
2019-05-13T08:33:35.839Z,100330.80
2019-05-13T08:36:07.306Z,100332.77
2019-05-13T08:38:43.125Z,100337.63
2019-05-13T08:41:18.908Z,100338.95
2019-05-13T08:43:47.930Z,100328.24
2019-05-13T08:46:21.688Z,100340.20
2019-05-13T08:48:53.066Z,100342.33
2019-05-13T08:51:24.498Z,100346.41
2019-05-13T08:53:55.767Z,100337.91
2019-05-13T08:56:27.317Z,100338.04
2019-05-13T08:59:01.252Z,100335.73
2019-05-13T09:01:34.847Z,100347.42
2019-05-13T09:04:06.425Z,100348.33
2019-05-13T09:06:38.156Z,100207.99
2019-05-13T09:09:11.479Z,100338.11
2019-05-13T09:11:46.534Z,100338.48
2019-05-13T09:14:21.839Z,100337.16
2019-05-13T09:16:52.793Z,100332.70
2019-05-13T09:19:24.174Z,100319.81
2019-05-13T09:21:55.577Z,100344.27
2019-05-13T09:24:34.113Z,100334.71
2019-05-13T09:27:01.925Z,100328.41
2019-05-13T09:29:33.251Z,100326.03
2019-05-13T09:32:04.828Z,100324.83
2019-05-13T09:34:36.033Z,100330.42
2019-05-13T09:37:07.459Z,100329.94
2019-05-13T09:39:41.492Z,100340.23
2019-05-13T09:42:13.035Z,100336.64
2019-05-13T09:44:47.695Z,100340.59
2019-05-13T09:47:21.534Z,100339.72
2019-05-13T09:49:54.568Z,100345.64
2019-05-13T09:52:26.421Z,100353.00
2019-05-13T09:54:59.224Z,100338.92
2019-05-13T09:57:32.167Z,100341.44
2019-05-13T10:00:16.335Z,100341.19
2019-05-13T10:02:51.760Z,100345.06
2019-05-13T10:05:23.397Z,100340.76
2019-05-13T10:07:56.730Z,100345.70
2019-05-13T10:10:31.900Z,100327.05
2019-05-13T10:13:11.996Z,100346.16
2019-05-13T10:15:37.246Z,100357.06
2019-05-13T10:18:12.638Z,100368.38
2019-05-13T10:20:52.888Z,100349.14
2019-05-13T10:23:27.365Z,100358.73
2019-05-13T10:26:03.873Z,100353.26
2019-05-13T10:28:36.114Z,100357.82
2019-05-13T10:31:08.394Z,100342.80
2019-05-13T10:33:41.998Z,100346.06
2019-05-13T10:36:15.451Z,100325.04
2019-05-13T10:38:47.134Z,100340.73
2019-05-13T10:41:21.613Z,100343.36
2019-05-13T10:43:53.041Z,100327.14
2019-05-13T10:46:26.400Z,100338.94
2019-05-13T10:49:01.929Z,100336.78
2019-05-13T10:51:33.521Z,100339.98
2019-05-13T10:54:04.936Z,100313.94
2019-05-13T10:56:36.346Z,100334.63
2019-05-13T10:59:12.372Z,100333.97
2019-05-13T11:01:44.509Z,100341.58
2019-05-13T11:04:16.928Z,100323.20
2019-05-13T11:06:52.380Z,100326.05
2019-05-13T11:09:24.772Z,100309.16
2019-05-13T11:11:57.017Z,100318.59
2019-05-13T11:14:28.466Z,100320.23
2019-05-13T11:17:01.832Z,100306.66
2019-05-13T11:19:37.105Z,100306.31
2019-05-13T11:22:08.312Z,100311.80
2019-05-13T11:24:42.860Z,100311.33
2019-05-13T11:27:12.780Z,100323.70
2019-05-13T11:29:45.164Z,100316.00
2019-05-13T11:32:21.599Z,100317.02
2019-05-13T11:34:53.343Z,100319.61
2019-05-13T11:37:25.306Z,100313.63
2019-05-13T11:39:56.382Z,100321.81
2019-05-13T11:42:27.930Z,100314.20
2019-05-13T11:45:01.455Z,100290.95
2019-05-13T11:47:43.600Z,100308.73
2019-05-13T11:50:16.739Z,100300.89
2019-05-13T11:52:48.479Z,100173.92
2019-05-13T11:55:23.003Z,100299.23
2019-05-13T11:57:56.590Z,100301.47
2019-05-13T12:01:06.824Z,100295.23
2019-05-13T12:03:38.373Z,100280.86
2019-05-13T12:06:09.973Z,100291.48
2019-05-13T12:08:50.176Z,100298.04
2019-05-13T12:11:16.622Z,100281.53
2019-05-13T12:13:48.630Z,100293.15
2019-05-13T12:16:22.878Z,100287.19
2019-05-13T12:18:54.564Z,100285.75
2019-05-13T12:21:26.215Z,100283.17
2019-05-13T12:24:07.092Z,100282.06
2019-05-13T12:26:33.397Z,100288.80
2019-05-13T12:29:05.519Z,100283.38
2019-05-13T12:31:40.692Z,100274.02
2019-05-13T12:34:13.247Z,100268.63
2019-05-13T12:36:49.516Z,100264.30
2019-05-13T12:39:23.954Z,100274.14
2019-05-13T12:41:54.377Z,100276.83
2019-05-13T12:44:25.787Z,100275.77
2019-05-13T12:46:57.567Z,100275.40
2019-05-13T12:49:33.530Z,100256.20
2019-05-13T12:52:05.195Z,100258.33
2019-05-13T12:54:43.640Z,100264.75
2019-05-13T12:57:17.433Z,100268.31
2019-05-13T12:59:48.893Z,100266.89
2019-05-13T13:02:22.596Z,100274.53
2019-05-13T13:05:10.524Z,100259.30
2019-05-13T13:07:26.940Z,100259.59
2019-05-13T13:09:58.682Z,100264.41
2019-05-13T13:12:35.987Z,100262.34
2019-05-13T13:15:36.439Z,100266.30
2019-05-13T13:17:47.033Z,100265.28
2019-05-13T13:20:18.580Z,100266.02
2019-05-13T13:22:50.255Z,100265.64
2019-05-13T13:25:23.945Z,100263.98
2019-05-13T13:28:15.229Z,100260.91
2019-05-13T13:30:34.575Z,100261.55
2019-05-13T13:33:03.065Z,100263.39
2019-05-13T13:35:34.706Z,100251.95
2019-05-13T13:38:09.201Z,100254.02
2019-05-13T13:40:45.706Z,100255.73
2019-05-13T13:43:15.917Z,100251.55
2019-05-13T13:48:25.353Z,100250.16
2019-05-13T13:50:56.198Z,100250.67
2019-05-13T13:53:28.301Z,100112.30
2019-05-13T13:56:02.171Z,100251.55
2019-05-13T13:58:33.318Z,100240.13
2019-05-13T14:01:12.325Z,100250.62
2019-05-13T14:03:46.180Z,100241.84
2019-05-13T14:07:20.568Z,100244.25
2019-05-13T14:08:51.895Z,100252.37
2019-05-13T14:11:23.997Z,100245.28
2019-05-13T14:13:56.037Z,100242.14
2019-05-13T14:16:32.498Z,100239.94
2019-05-13T14:19:02.017Z,100227.40
2019-05-13T14:21:34.260Z,100231.51
2019-05-13T14:24:05.943Z,100230.42
2019-05-13T14:26:39.171Z,100250.13
2019-05-13T14:29:12.352Z,100219.31
2019-05-13T14:31:45.235Z,100236.34
2019-05-13T14:34:17.117Z,100239.61
2019-05-13T14:36:48.811Z,100237.77
2019-05-13T14:39:22.229Z,100242.08
2019-05-13T14:41:53.659Z,100242.03
2019-05-13T14:44:25.249Z,100244.58
2019-05-13T14:46:58.161Z,100252.41
2019-05-13T14:49:31.679Z,100258.33
2019-05-13T14:52:03.373Z,100251.73
2019-05-13T14:54:34.605Z,100254.08
2019-05-13T14:57:11.700Z,100253.41
2019-05-13T14:59:41.501Z,100250.41
2019-05-13T15:02:13.082Z,100258.28
2019-05-13T15:04:44.368Z,100252.94
2019-05-13T15:07:15.840Z,100256.46
2019-05-13T15:09:51.523Z,100254.59
2019-05-13T15:12:23.713Z,100261.66
2019-05-13T15:14:55.289Z,100268.44
2019-05-13T15:17:26.512Z,100263.61
2019-05-13T15:19:58.145Z,100254.20
2019-05-13T15:22:32.828Z,100264.30
2019-05-13T15:25:15.025Z,100257.72
2019-05-13T15:27:46.524Z,100253.06
2019-05-13T15:30:21.789Z,100255.96
2019-05-13T15:32:54.091Z,100261.45
2019-05-13T15:35:25.496Z,100258.56
2019-05-13T15:37:57.966Z,100263.56
2019-05-13T15:40:31.208Z,100268.27
2019-05-13T15:43:04.726Z,100259.38
2019-05-13T15:45:38.438Z,100257.19
2019-05-13T15:48:11.570Z,100263.16
2019-05-13T15:50:43.190Z,100262.39
2019-05-13T15:53:14.747Z,100140.05
2019-05-13T15:55:48.772Z,100262.80
2019-05-13T15:58:37.687Z,100266.72
2019-05-13T16:00:54.152Z,100261.77
2019-05-13T16:03:26.618Z,100267.45
2019-05-13T16:05:58.237Z,100262.64
2019-05-13T16:08:32.035Z,100257.36
2019-05-13T16:11:05.146Z,100261.07
2019-05-13T16:13:37.591Z,100261.74
2019-05-13T16:16:12.128Z,100263.66
2019-05-13T16:18:45.442Z,100281.27
2019-05-13T16:21:17.284Z,100278.68
2019-05-13T16:23:51.400Z,100287.61
2019-05-13T16:26:22.946Z,100299.75
2019-05-13T16:28:54.488Z,100305.91
2019-05-13T16:31:26.207Z,100292.98
2019-05-13T16:33:57.551Z,100307.84
2019-05-13T16:36:30.825Z,100298.00
2019-05-13T16:39:06.126Z,100303.05
2019-05-13T16:41:37.643Z,100302.79
2019-05-13T16:44:11.642Z,100307.98
2019-05-13T16:46:46.662Z,100311.42
2019-05-13T16:49:21.153Z,100296.59
2019-05-13T16:51:52.230Z,100304.15
2019-05-13T16:54:24.844Z,100309.18
2019-05-13T16:56:56.117Z,100307.50
2019-05-13T16:59:27.881Z,100306.70
2019-05-13T17:02:01.801Z,100297.71
2019-05-13T17:04:33.444Z,100305.31
2019-05-13T17:07:12.030Z,100321.61
2019-05-13T17:09:43.654Z,100320.22
2019-05-13T17:12:15.970Z,100327.85
2019-05-13T17:14:47.682Z,100324.69
2019-05-13T17:17:19.036Z,100320.66
2019-05-13T17:19:53.600Z,100323.29
2019-05-13T17:22:24.135Z,100325.61
2019-05-13T17:24:55.630Z,100327.88
2019-05-13T17:27:27.929Z,100329.99
2019-05-13T17:30:02.217Z,100342.35
2019-05-13T17:32:44.745Z,100343.41
2019-05-13T17:35:18.204Z,100341.69
2019-05-13T17:37:51.812Z,100350.48
2019-05-13T17:40:23.580Z,100345.76
2019-05-13T17:42:55.613Z,100330.81
2019-05-13T17:45:27.354Z,100345.66
2019-05-13T17:48:35.521Z,100346.90
2019-05-13T17:51:07.633Z,100348.51
2019-05-13T17:53:41.276Z,100359.34
2019-05-13T17:56:12.963Z,100364.33
2019-05-13T17:58:44.274Z,100364.18
2019-05-13T18:01:16.099Z,100363.38
2019-05-13T18:03:47.747Z,100358.40
2019-05-13T18:06:19.325Z,100355.14
2019-05-13T18:08:51.858Z,100348.00
2019-05-13T18:11:23.496Z,100355.02
2019-05-13T18:13:54.768Z,100362.93
2019-05-13T18:16:26.989Z,100374.17
2019-05-13T18:18:58.404Z,100369.70
2019-05-13T18:21:31.869Z,100365.77
2019-05-13T18:24:03.950Z,100369.91
2019-05-13T18:26:35.734Z,100373.75
2019-05-13T18:29:07.625Z,100372.88
2019-05-13T18:31:41.810Z,100366.43
2019-05-13T18:34:12.997Z,100368.14
2019-05-13T18:36:44.462Z,100371.71
2019-05-13T18:39:16.187Z,100375.29
2019-05-13T18:41:49.446Z,100372.23
2019-05-13T18:44:20.845Z,100370.13
2019-05-13T18:46:52.581Z,100361.25
2019-05-13T18:49:23.851Z,100365.07
2019-05-13T18:51:55.177Z,100358.45
2019-05-13T18:54:26.398Z,100366.98
2019-05-13T18:56:57.650Z,100369.65
2019-05-13T18:59:29.061Z,100369.23
2019-05-13T19:02:01.518Z,100365.80
2019-05-13T19:04:33.289Z,100362.22
2019-05-13T19:07:07.687Z,100366.02
2019-05-13T19:09:38.090Z,100361.70
2019-05-13T19:12:11.637Z,100359.06
2019-05-13T19:14:43.898Z,100359.97
2019-05-13T19:17:15.215Z,100360.13
2019-05-13T19:19:48.137Z,100361.80
2019-05-13T19:22:21.427Z,100356.05
2019-05-13T19:24:52.609Z,100364.08
2019-05-13T19:27:24.567Z,100356.16
2019-05-13T19:29:55.894Z,100354.37
2019-05-13T19:32:32.207Z,100359.63
2019-05-13T19:35:13.644Z,100360.78
2019-05-13T19:37:45.607Z,100353.83
2019-05-13T19:40:17.134Z,100349.45
2019-05-13T19:42:48.517Z,100355.52
2019-05-13T19:45:21.753Z,100359.75
2019-05-13T19:47:53.538Z,100343.23
2019-05-13T19:50:26.764Z,100350.61
2019-05-13T19:52:58.587Z,100352.39
2019-05-13T19:55:33.535Z,100356.23
2019-05-13T19:58:04.815Z,100348.31
2019-05-13T20:00:36.281Z,100318.59
2019-05-13T20:03:11.540Z,100349.81
2019-05-13T20:05:43.414Z,100356.61
2019-05-13T20:08:14.879Z,100354.16
2019-05-13T20:10:47.762Z,100350.45
2019-05-13T20:13:21.656Z,100355.59
2019-05-13T20:15:52.336Z,100353.17
2019-05-13T20:18:26.492Z,100346.28
2019-05-13T20:20:58.680Z,100352.02
2019-05-13T20:23:32.292Z,100353.17
2019-05-13T20:26:03.666Z,100358.28
2019-05-13T20:28:35.183Z,100357.21
2019-05-13T20:31:06.649Z,100360.84
2019-05-13T20:33:40.159Z,100358.06
2019-05-13T20:36:11.996Z,100371.63
2019-05-13T20:38:44.610Z,100367.36
2019-05-13T20:41:15.994Z,100367.11
2019-05-13T20:43:48.225Z,100372.18
2019-05-13T20:46:19.782Z,100370.05
2019-05-13T20:48:52.040Z,100375.13
2019-05-13T20:51:23.870Z,100368.77
2019-05-13T20:53:55.549Z,100368.33
2019-05-13T20:56:27.585Z,100364.70
2019-05-13T20:58:59.212Z,100372.63
2019-05-13T21:01:30.661Z,100366.16
2019-05-13T21:04:02.380Z,100357.45
2019-05-13T21:06:35.656Z,100353.05
2019-05-13T21:09:13.623Z,100337.50
2019-05-13T21:11:42.401Z,100341.38
2019-05-13T21:14:18.095Z,100321.41
2019-05-13T21:16:53.669Z,100331.37
2019-05-13T21:19:27.500Z,100321.05
2019-05-13T21:21:59.266Z,100315.05
2019-05-13T21:24:31.925Z,100325.39
2019-05-13T21:27:04.098Z,100330.75
2019-05-13T21:29:37.943Z,100331.24
2019-05-13T21:32:11.597Z,100339.81
2019-05-13T21:34:42.689Z,100333.56
2019-05-13T21:37:14.255Z,100342.88
2019-05-13T21:39:47.123Z,100335.87
2019-05-13T21:42:18.721Z,100334.73
2019-05-13T21:44:51.421Z,100329.81
2019-05-13T21:47:23.934Z,100325.94
2019-05-13T21:49:55.727Z,100328.25
2019-05-13T21:52:27.163Z,100328.25
2019-05-13T21:54:58.675Z,100328.33
2019-05-13T21:57:32.929Z,100323.19
2019-05-13T22:00:14.031Z,100318.66
2019-05-13T22:02:45.535Z,100324.16
2019-05-13T22:05:17.194Z,100323.92
2019-05-13T22:07:49.543Z,100321.27
2019-05-13T22:10:21.611Z,100321.06
2019-05-13T22:12:53.651Z,100313.94
2019-05-13T22:15:25.281Z,100309.14
2019-05-13T22:17:56.685Z,100308.12
2019-05-13T22:20:28.069Z,100309.22
2019-05-13T22:23:01.386Z,100307.20
2019-05-13T22:25:32.893Z,100303.06
2019-05-13T22:28:06.338Z,100298.71
2019-05-13T22:30:38.028Z,100299.23
2019-05-13T22:33:09.411Z,100301.51
2019-05-13T22:35:41.768Z,100301.84
2019-05-13T22:38:13.616Z,100302.03
2019-05-13T22:40:45.162Z,100299.76
2019-05-13T22:43:16.788Z,100302.09
2019-05-13T22:45:48.151Z,100292.62
2019-05-13T22:48:22.284Z,100282.16
2019-05-13T22:50:54.995Z,100279.45
2019-05-13T22:53:31.731Z,100282.80
2019-05-13T22:56:03.360Z,100276.53
2019-05-13T22:58:34.665Z,100269.69
2019-05-13T23:01:06.004Z,100268.41
2019-05-13T23:03:37.717Z,100270.95
2019-05-13T23:06:12.081Z,100268.81
2019-05-13T23:08:45.983Z,100261.78
2019-05-13T23:11:17.172Z,100259.84
2019-05-13T23:13:48.669Z,100257.08
2019-05-13T23:16:22.095Z,100258.28
2019-05-13T23:18:53.494Z,100250.02
2019-05-13T23:21:25.148Z,100255.25
2019-05-13T23:23:56.959Z,100248.70
2019-05-13T23:26:28.365Z,100248.56
2019-05-13T23:29:01.431Z,100237.65
2019-05-13T23:31:33.266Z,100231.48
2019-05-13T23:34:05.037Z,100234.20
2019-05-13T23:36:36.361Z,100228.28
2019-05-13T23:39:08.151Z,100227.00
2019-05-13T23:41:41.616Z,100226.73
2019-05-13T23:44:25.066Z,100228.05
2019-05-13T23:46:48.217Z,100219.67
2019-05-13T23:49:21.120Z,100208.52
2019-05-13T23:51:52.985Z,100208.98
2019-05-13T23:54:24.963Z,100209.92
2019-05-13T23:56:56.541Z,100210.77
2019-05-13T23:59:27.893Z,100215.91
